createdAt,value
2023-04-23T00:02:55.479Z,100091.00
2023-04-23T00:08:00.634Z,100089.80
2023-04-23T00:13:04.627Z,100080.40
2023-04-23T00:18:08.124Z,100080.40
2023-04-23T00:23:11.137Z,100080.80
2023-04-23T00:28:13.904Z,100070.80
2023-04-23T00:33:16.818Z,100074.20
2023-04-23T00:38:21.225Z,100064.00
2023-04-23T00:43:24.188Z,100064.80
2023-04-23T00:48:29.123Z,100056.40
2023-04-23T00:53:33.593Z,100055.20
2023-04-23T00:58:36.807Z,100058.40
2023-04-23T01:03:43.048Z,100055.80
2023-04-23T01:08:47.760Z,100051.20
2023-04-23T01:13:50.768Z,100051.20
2023-04-23T01:18:53.965Z,100046.00
2023-04-23T01:23:56.744Z,100046.80
2023-04-23T01:29:01.343Z,100050.80
2023-04-23T01:34:04.631Z,100047.60
2023-04-23T01:39:09.122Z,100042.40
2023-04-23T01:44:12.298Z,100036.20
2023-04-23T01:49:15.735Z,100039.00
2023-04-23T01:54:18.565Z,100040.40
2023-04-23T01:59:24.402Z,100038.00
2023-04-23T02:04:28.226Z,100029.40
2023-04-23T02:09:31.160Z,100029.20
2023-04-23T02:14:34.053Z,100032.40
2023-04-23T02:19:36.851Z,100028.80
2023-04-23T02:24:42.254Z,100031.00
2023-04-23T02:29:46.716Z,100029.20
2023-04-23T02:34:49.481Z,100020.80
2023-04-23T02:39:52.256Z,100019.40
2023-04-23T02:44:54.996Z,100017.20
2023-04-23T02:49:59.321Z,100020.40
2023-04-23T02:55:05.277Z,100021.80
2023-04-23T03:00:09.670Z,100017.20
2023-04-23T03:05:12.806Z,100007.20
2023-04-23T03:10:15.736Z,100005.40
2023-04-23T03:15:18.821Z,100005.80
2023-04-23T03:20:21.936Z,100005.00
2023-04-23T03:25:25.902Z,99998.20
2023-04-23T03:30:29.801Z,99993.80
2023-04-23T03:35:32.738Z,99993.60
2023-04-23T03:40:35.894Z,99992.00
2023-04-23T03:45:38.661Z,99987.60
2023-04-23T03:50:41.495Z,99978.20
2023-04-23T03:55:44.957Z,99979.20
2023-04-23T04:00:47.822Z,99976.00
2023-04-23T04:05:50.665Z,99975.00
2023-04-23T04:10:53.659Z,99981.20
2023-04-23T04:15:56.603Z,99973.80
2023-04-23T04:20:59.793Z,99972.60
2023-04-23T04:26:02.801Z,99972.00
2023-04-23T04:31:06.911Z,99967.60
2023-04-23T04:36:09.889Z,99964.00
2023-04-23T04:41:13.288Z,99966.20
2023-04-23T04:46:16.277Z,99964.60
2023-04-23T04:51:20.375Z,99958.20
2023-04-23T04:56:24.166Z,99931.00
2023-04-23T05:01:29.074Z,99924.80
2023-04-23T05:06:32.471Z,99937.20
2023-04-23T05:11:36.044Z,99902.40
2023-04-23T05:16:38.918Z,99897.80
2023-04-23T05:21:42.683Z,99899.20
2023-04-23T05:26:45.587Z,99894.20
2023-04-23T05:31:51.853Z,99914.00
2023-04-23T05:36:54.756Z,99889.60
2023-04-23T05:41:58.155Z,99883.00
2023-04-23T05:47:01.072Z,99880.20
2023-04-23T05:52:04.036Z,99876.00
2023-04-23T05:57:07.114Z,99880.20
2023-04-23T06:02:11.241Z,99881.20
2023-04-23T06:07:15.319Z,99875.20
2023-04-23T06:12:18.493Z,99870.40
2023-04-23T06:17:21.393Z,99876.20
2023-04-23T06:22:24.266Z,99875.00
2023-04-23T06:27:27.298Z,99871.40
2023-04-23T06:32:30.137Z,99869.40
2023-04-23T06:37:32.990Z,99865.00
2023-04-23T06:42:35.958Z,99862.00
2023-04-23T06:47:38.763Z,99859.40
2023-04-23T06:52:41.963Z,99862.20
2023-04-23T06:57:44.917Z,99870.40
2023-04-23T07:02:47.924Z,99858.60
2023-04-23T07:07:50.978Z,99855.60
2023-04-23T07:12:53.745Z,99844.40
2023-04-23T07:17:56.804Z,99834.80
2023-04-23T07:22:59.904Z,99828.80
2023-04-23T07:28:02.835Z,99842.40
2023-04-23T07:33:06.162Z,99835.00
2023-04-23T07:38:09.139Z,99819.20
2023-04-23T07:43:12.484Z,99817.00
2023-04-23T07:48:15.363Z,99821.20
2023-04-23T07:53:18.334Z,99816.60
2023-04-23T07:58:21.343Z,99805.80
2023-04-23T08:03:24.650Z,99803.40
2023-04-23T08:08:27.701Z,99794.20
2023-04-23T08:13:30.641Z,99798.60
2023-04-23T08:18:33.523Z,99782.40
2023-04-23T08:23:36.323Z,99797.60
2023-04-23T08:28:39.131Z,99786.20
2023-04-23T08:33:42.044Z,99782.20
2023-04-23T08:38:44.883Z,99774.40
2023-04-23T08:44:14.675Z,99773.00
2023-04-23T08:49:18.907Z,99769.20
2023-04-23T08:54:28.066Z,99759.60
2023-04-23T08:59:32.114Z,99748.20
2023-04-23T09:04:36.470Z,99748.00
2023-04-23T09:09:41.059Z,99745.00
2023-04-23T09:14:45.143Z,99729.20
2023-04-23T09:19:51.100Z,99740.60
2023-04-23T09:24:54.584Z,99722.00
2023-04-23T09:29:59.597Z,99715.80
2023-04-23T09:35:07.911Z,99717.80
2023-04-23T09:40:18.559Z,99713.20
2023-04-23T09:45:22.141Z,99708.00
2023-04-23T09:50:40.009Z,99706.80
2023-04-23T09:55:45.014Z,99700.80
2023-04-23T10:00:48.655Z,99702.40
2023-04-23T10:06:01.958Z,99688.60
2023-04-23T10:11:19.839Z,99692.80
2023-04-23T10:16:26.886Z,99691.00
2023-04-23T10:21:46.279Z,99701.00
2023-04-23T10:26:59.812Z,99705.40
2023-04-23T10:32:07.206Z,99711.40
2023-04-23T10:37:12.037Z,99698.40
2023-04-23T10:42:16.908Z,99719.20
2023-04-23T10:47:22.603Z,99706.20
2023-04-23T10:52:26.281Z,99698.00
2023-04-23T10:57:29.277Z,99704.60
2023-04-23T11:02:44.985Z,99699.20
2023-04-23T11:08:18.953Z,99696.80
2023-04-23T11:13:28.194Z,99699.40
2023-04-23T11:18:30.982Z,99703.40
2023-04-23T11:23:34.034Z,99694.00
2023-04-23T11:28:39.745Z,99697.80
2023-04-23T11:33:42.791Z,99686.20
2023-04-23T11:38:46.218Z,99686.60
2023-04-23T11:43:49.039Z,99688.20
2023-04-23T11:48:52.077Z,99696.20
2023-04-23T11:53:55.048Z,99692.40
2023-04-23T11:59:05.363Z,99690.20
2023-04-23T12:04:13.568Z,99692.80
2023-04-23T12:09:21.193Z,99688.60
2023-04-23T12:14:30.640Z,99726.60
2023-04-23T12:19:33.673Z,99680.00
2023-04-23T12:24:54.523Z,99693.60
2023-04-23T12:30:02.234Z,99693.40
2023-04-23T12:35:07.256Z,99681.60
2023-04-23T12:40:11.096Z,99686.00
2023-04-23T12:45:13.920Z,99678.80
2023-04-23T12:50:16.986Z,99684.00
2023-04-23T12:55:19.900Z,99682.60
2023-04-23T13:00:23.426Z,99673.60
2023-04-23T13:05:26.205Z,99692.40
2023-04-23T13:10:31.022Z,99672.40
2023-04-23T13:15:34.060Z,99672.40
2023-04-23T13:20:36.888Z,99667.80
2023-04-23T13:25:39.724Z,99654.20
2023-04-23T13:30:42.506Z,99663.60
2023-04-23T13:35:45.311Z,99660.00
2023-04-23T13:40:48.232Z,99664.40
2023-04-23T13:45:54.239Z,99648.00
2023-04-23T13:51:01.776Z,99648.00
2023-04-23T13:56:04.956Z,99644.00
2023-04-23T14:01:07.840Z,99637.00
2023-04-23T14:06:11.123Z,99636.40
2023-04-23T14:11:13.933Z,99638.00
2023-04-23T14:16:17.608Z,99625.20
2023-04-23T14:21:20.555Z,99618.00
2023-04-23T14:26:49.439Z,99604.20
2023-04-23T14:31:52.993Z,99603.40
2023-04-23T14:36:55.955Z,99601.40
2023-04-23T14:41:58.851Z,99601.80
2023-04-23T14:47:02.344Z,99593.80
2023-04-23T14:52:05.228Z,99599.00
2023-04-23T14:57:08.152Z,99593.20
2023-04-23T15:02:12.280Z,99596.20
2023-04-23T15:07:15.367Z,99579.60
2023-04-23T15:12:37.956Z,99588.20
2023-04-23T15:17:41.528Z,99592.80
2023-04-23T15:22:47.896Z,99582.40
2023-04-23T15:27:57.679Z,99587.60
2023-04-23T15:33:00.641Z,99580.40
2023-04-23T15:38:03.835Z,99577.20
2023-04-23T15:43:06.759Z,99586.60
2023-04-23T15:48:10.096Z,99563.40
2023-04-23T15:53:13.069Z,99563.00
2023-04-23T15:58:15.931Z,99566.40
2023-04-23T16:03:18.973Z,99568.60
2023-04-23T16:08:22.165Z,99558.20
2023-04-23T16:13:26.760Z,99550.80
2023-04-23T16:18:29.650Z,99542.60
2023-04-23T16:23:32.463Z,99539.60
2023-04-23T16:28:35.628Z,99538.60
2023-04-23T16:33:38.604Z,99534.20
2023-04-23T16:38:44.945Z,99525.60
2023-04-23T16:43:47.790Z,99529.20
2023-04-23T16:48:50.620Z,99522.60
2023-04-23T16:53:53.406Z,99520.60
2023-04-23T16:58:56.527Z,99525.00
2023-04-23T17:03:59.527Z,99517.60
2023-04-23T17:09:05.333Z,99504.20
2023-04-23T17:14:08.191Z,99503.60
2023-04-23T17:19:11.665Z,99506.40
2023-04-23T17:24:14.559Z,99507.60
2023-04-23T17:29:17.420Z,99502.60
2023-04-23T17:34:20.205Z,99497.00
2023-04-23T17:39:23.808Z,99502.80
2023-04-23T17:44:26.746Z,99497.60
2023-04-23T17:49:29.614Z,99492.00
2023-04-23T17:54:32.546Z,99492.00
2023-04-23T17:59:35.795Z,99489.60
2023-04-23T18:04:38.651Z,99486.80
2023-04-23T18:09:41.429Z,99490.40
2023-04-23T18:14:44.318Z,99492.80
2023-04-23T18:19:48.967Z,99496.20
2023-04-23T18:24:51.792Z,99491.00
2023-04-23T18:29:57.626Z,99497.60
2023-04-23T18:35:01.996Z,99496.00
2023-04-23T18:40:06.908Z,99500.60
2023-04-23T18:45:10.793Z,99559.40
2023-04-23T18:50:50.099Z,99552.80
2023-04-23T18:55:52.902Z,99552.80
2023-04-23T19:00:56.527Z,99556.20
2023-04-23T19:05:59.645Z,99562.60
2023-04-23T19:11:03.790Z,99562.00
2023-04-23T19:16:08.942Z,99564.20
2023-04-23T19:21:12.206Z,99565.00
2023-04-23T19:26:15.017Z,99564.00
2023-04-23T19:31:17.977Z,99560.00
2023-04-23T19:36:20.959Z,99567.20
2023-04-23T19:41:23.783Z,99567.60
2023-04-23T19:46:26.685Z,99567.20
2023-04-23T19:51:35.501Z,99562.40
2023-04-23T19:56:38.331Z,99564.00
2023-04-23T20:01:45.560Z,99567.60
2023-04-23T20:06:48.412Z,99559.60
2023-04-23T20:11:52.829Z,99566.20
2023-04-23T20:16:56.802Z,99559.40
2023-04-23T20:21:59.610Z,99555.80
2023-04-23T20:27:02.489Z,99553.40
2023-04-23T20:32:05.729Z,99548.40
2023-04-23T20:37:08.814Z,99547.00
2023-04-23T20:42:12.075Z,99547.20
2023-04-23T20:47:18.720Z,99547.40
2023-04-23T20:52:21.653Z,99548.00
2023-04-23T20:57:24.498Z,99544.80
2023-04-23T21:02:27.500Z,99551.20
2023-04-23T21:07:31.131Z,99552.80
2023-04-23T21:12:34.041Z,99557.20
2023-04-23T21:17:36.904Z,99552.40
2023-04-23T21:22:39.802Z,99547.40
2023-04-23T21:27:46.016Z,99552.20
2023-04-23T21:32:52.218Z,99549.00
2023-04-23T21:37:55.382Z,99542.00
2023-04-23T21:42:58.211Z,99534.60
2023-04-23T21:48:02.002Z,99532.00
2023-04-23T21:53:06.959Z,99529.40
2023-04-23T22:03:20.533Z,99521.00
2023-04-23T22:08:40.484Z,99510.40
2023-04-23T22:13:43.406Z,99502.80
2023-04-23T22:18:46.175Z,99501.00
2023-04-23T22:23:49.055Z,99496.00
2023-04-23T22:28:52.306Z,99499.20
2023-04-23T22:33:55.305Z,99502.40
2023-04-23T22:38:58.503Z,99508.40
2023-04-23T22:44:01.270Z,99506.60
2023-04-23T22:49:07.754Z,99504.60
2023-04-23T22:54:10.662Z,99508.20
2023-04-23T22:59:13.699Z,99505.20
2023-04-23T23:04:16.580Z,99498.80
2023-04-23T23:09:19.466Z,99498.20
2023-04-23T23:14:23.213Z,99496.00
2023-04-23T23:19:28.282Z,99492.60
2023-04-23T23:24:31.092Z,99489.40
2023-04-23T23:29:34.216Z,99478.00
2023-04-23T23:34:37.010Z,99483.00
2023-04-23T23:39:40.000Z,99479.40
2023-04-23T23:44:42.951Z,99477.40
2023-04-23T23:49:45.883Z,99477.20
2023-04-23T23:54:48.791Z,99464.40
2023-04-23T23:59:51.567Z,99458.80
